Time;durP1;ratioP1;P1;durP2;ratioP2;P2;SDS_P1;SDS_P2;PMS_P1;PMS_P2;Temp;Humidity;BMP_temperature;BMP_pressure;BME280_temperature;BME280_humidity;BME280_pressure;Samples;Min_cycle;Max_cycle;Signal;HPM_P1;HPM_P2
2023/03/22 00:06:07;;;;;;;11.18;7.43;;;;;;;8.73;100.00;100139.38;20563462;28;20476;-76
2023/03/22 00:16:09;;;;;;;12.73;7.43;;;;;;;8.69;100.00;100124.63;20568248;28;20563;-76
2023/03/22 00:26:11;;;;;;;11.27;7.20;;;;;;;8.68;100.00;100129.88;20563623;28;20458;-77
2023/03/22 00:36:12;;;;;;;11.93;7.50;;;;;;;8.68;100.00;100119.44;20568930;28;20051;-75
2023/03/22 00:46:13;;;;;;;10.98;6.68;;;;;;;8.65;100.00;100099.44;20577674;28;20062;-75
2023/03/22 00:56:14;;;;;;;10.93;6.63;;;;;;;8.65;100.00;100088.16;20581036;28;20113;-77
2023/03/22 01:06:16;;;;;;;17.55;7.85;;;;;;;8.63;100.00;100087.31;20575882;28;20106;-75
2023/03/22 01:16:17;;;;;;;14.05;7.60;;;;;;;8.63;100.00;100069.06;20578265;28;20055;-75
2023/03/22 01:26:18;;;;;;;15.70;8.40;;;;;;;8.65;100.00;100062.91;20576839;28;20055;-77
2023/03/22 01:36:20;;;;;;;10.80;6.45;;;;;;;8.55;100.00;100050.03;20582021;28;20492;-78
2023/03/22 01:46:21;;;;;;;12.50;6.78;;;;;;;8.42;100.00;100050.16;20579350;28;20050;-78
2023/03/22 01:56:23;;;;;;;13.77;7.22;;;;;;;8.33;100.00;100039.81;20594647;28;20047;-77
2023/03/22 02:06:24;;;;;;;11.15;6.82;;;;;;;8.33;100.00;100038.94;20598092;28;20061;-76
2023/03/22 02:16:25;;;;;;;13.63;7.38;;;;;;;8.18;100.00;100060.84;20618989;28;20055;-78
2023/03/22 02:26:27;;;;;;;12.32;7.65;;;;;;;7.89;100.00;100046.41;20601049;28;20074;-76
2023/03/22 02:36:29;;;;;;;15.35;8.18;;;;;;;7.65;100.00;100044.91;20574535;28;20050;-76
2023/03/22 02:46:31;;;;;;;14.38;8.38;;;;;;;7.40;100.00;100046.00;20580305;28;20043;-77
2023/03/22 02:56:32;;;;;;;17.00;9.90;;;;;;;7.37;100.00;100028.66;20564416;28;20047;-76
2023/03/22 03:06:34;;;;;;;17.27;10.70;;;;;;;7.51;100.00;100022.47;20575802;28;20049;-78
2023/03/22 03:16:35;;;;;;;17.80;10.05;;;;;;;7.33;100.00;100020.88;20588638;28;20066;-76
2023/03/22 03:26:37;;;;;;;19.08;9.13;;;;;;;7.31;100.00;100028.72;20593074;28;20070;-77
2023/03/22 03:36:38;;;;;;;14.30;9.43;;;;;;;7.17;100.00;100036.63;20569316;28;20476;-78
2023/03/22 03:46:39;;;;;;;13.95;8.40;;;;;;;6.93;100.00;100037.66;20553358;28;20050;-77
2023/03/22 03:56:40;;;;;;;15.82;8.50;;;;;;;6.83;100.00;100024.75;20569715;28;20042;-78
2023/03/22 04:06:42;;;;;;;13.55;7.90;;;;;;;6.70;100.00;100026.53;20580901;28;20057;-77
2023/03/22 04:16:44;;;;;;;20.48;10.70;;;;;;;6.64;100.00;100022.25;20581044;28;20058;-75
2023/03/22 04:26:45;;;;;;;14.40;7.75;;;;;;;6.83;100.00;100009.13;20583474;28;20047;-77
2023/03/22 04:36:46;;;;;;;11.27;7.03;;;;;;;7.46;100.00;99992.09;20583688;28;20466;-76
2023/03/22 04:46:47;;;;;;;9.75;5.38;;;;;;;7.68;100.00;99987.56;20582455;28;20047;-77
2023/03/22 04:56:49;;;;;;;10.30;4.78;;;;;;;7.80;100.00;99981.31;20614018;28;20101;-76
2023/03/22 05:06:50;;;;;;;10.90;5.47;;;;;;;7.81;100.00;99993.50;20599709;28;20050;-77
2023/03/22 05:16:51;;;;;;;10.18;5.32;;;;;;;7.80;100.00;99990.91;20591989;28;20057;-76
2023/03/22 05:26:53;;;;;;;9.77;5.32;;;;;;;7.97;100.00;100009.81;20576126;28;20046;-78
2023/03/22 05:36:54;;;;;;;11.68;5.22;;;;;;;7.85;100.00;100005.59;20580156;28;20042;-76
2023/03/22 05:46:55;;;;;;;10.45;5.55;;;;;;;7.84;100.00;100013.44;20574600;28;20179;-79
2023/03/22 05:56:57;;;;;;;13.43;5.72;;;;;;;7.87;100.00;100010.81;20572829;28;20146;-77
2023/03/22 06:06:58;;;;;;;9.48;5.53;;;;;;;7.90;100.00;100019.44;20579061;28;20054;-82
2023/03/22 06:16:59;;;;;;;10.98;6.47;;;;;;;8.11;100.00;100020.09;20585375;28;20384;-76
2023/03/22 06:27:01;;;;;;;10.55;5.72;;;;;;;8.26;100.00;100012.09;20574384;28;20050;-76
2023/03/22 06:37:02;;;;;;;9.95;5.63;;;;;;;8.45;100.00;100021.44;20579550;28;20055;-76
2023/03/22 06:47:03;;;;;;;13.10;5.88;;;;;;;8.78;100.00;100021.84;20589529;28;20740;-77
2023/03/22 06:57:04;;;;;;;9.05;5.10;;;;;;;9.35;100.00;100029.69;20576470;28;20105;-78
2023/03/22 07:07:06;;;;;;;10.57;4.68;;;;;;;9.83;100.00;100027.09;20582541;28;20058;-77
2023/03/22 07:17:12;;;;;;;11.43;4.22;;;;;;;10.20;100.00;100031.59;20568172;28;20058;-77
2023/03/22 07:27:15;;;;;;;7.50;4.03;;;;;;;10.47;100.00;100027.56;20603934;28;20058;-77
2023/03/22 07:37:16;;;;;;;11.82;3.92;;;;;;;10.73;100.00;100034.84;20626283;28;20089;-79
2023/03/22 07:47:17;;;;;;;9.50;3.88;;;;;;;11.32;100.00;100037.84;20561571;28;20054;-77
2023/03/22 07:57:38;;;;;;;11.27;4.53;;;;;;;11.61;100.00;100036.25;20563209;28;20570;-77
2023/03/22 08:07:40;;;;;;;9.60;4.18;;;;;;;11.76;100.00;100028.84;20560673;28;20093;-77
2023/03/22 08:17:41;;;;;;;10.27;3.60;;;;;;;12.24;100.00;100030.19;20557758;28;20058;-77
2023/03/22 08:27:42;;;;;;;7.35;3.60;;;;;;;12.51;100.00;100020.69;20560790;28;20051;-77
2023/03/22 08:37:43;;;;;;;7.15;2.95;;;;;;;13.03;100.00;100008.53;20563275;28;20043;-74
2023/03/22 08:47:45;;;;;;;7.18;2.55;;;;;;;13.86;100.00;100004.03;20562161;28;20588;-74
2023/03/22 08:57:49;;;;;;;6.35;2.00;;;;;;;14.07;100.00;99989.22;20563316;28;20565;-73
2023/03/22 09:07:50;;;;;;;5.87;2.30;;;;;;;14.07;100.00;99982.19;20572881;28;20493;-72
2023/03/22 09:17:51;;;;;;;7.00;2.00;;;;;;;14.01;100.00;99968.38;20575978;28;20046;-73
2023/03/22 09:27:53;;;;;;;5.90;1.95;;;;;;;14.28;100.00;99951.56;20575101;28;20526;-75
2023/03/22 09:37:54;;;;;;;5.50;1.50;;;;;;;14.85;100.00;99957.25;20574820;28;20047;-74
2023/03/22 09:47:56;;;;;;;4.40;1.23;;;;;;;15.19;100.00;99953.25;20573046;28;20521;-72
2023/03/22 09:57:57;;;;;;;4.85;1.88;;;;;;;15.22;100.00;99935.50;20570909;28;20050;-73
2023/03/22 10:07:58;;;;;;;5.28;1.95;;;;;;;15.70;98.97;99933.50;20569572;28;20054;-72
2023/03/22 10:18:00;;;;;;;4.22;1.63;;;;;;;15.82;95.03;99925.06;20570149;28;20042;-72
2023/03/22 10:28:01;;;;;;;5.20;1.50;;;;;;;15.92;78.33;99913.16;20570704;28;20050;-72
2023/03/22 10:38:02;;;;;;;3.58;1.38;;;;;;;16.38;76.53;99898.66;20569174;28;20051;-73
2023/03/22 10:48:05;;;;;;;5.95;1.67;;;;;;;16.42;75.61;99899.34;20570113;28;20050;-72
2023/03/22 10:58:07;;;;;;;4.03;1.30;;;;;;;16.94;72.43;99888.91;20569906;28;20140;-73
2023/03/22 11:08:08;;;;;;;3.42;1.30;;;;;;;16.37;74.73;99885.50;20566923;28;20050;-72
2023/03/22 11:18:09;;;;;;;2.33;1.00;;;;;;;16.39;73.50;99881.03;20565779;28;20101;-72
2023/03/22 11:28:10;;;;;;;4.45;1.33;;;;;;;16.75;69.95;99867.81;20565261;28;20496;-72
2023/03/22 11:38:12;;;;;;;3.38;1.45;;;;;;;17.21;68.68;99865.50;20566215;28;20462;-72
2023/03/22 11:48:13;;;;;;;3.60;1.23;;;;;;;17.09;65.19;99851.09;20566755;28;20567;-73
2023/03/22 11:58:15;;;;;;;3.83;1.13;;;;;;;17.13;66.00;99844.72;20563683;28;20058;-73
2023/03/22 12:08:16;;;;;;;3.95;1.20;;;;;;;17.03;67.54;99829.41;20563747;28;20574;-72
2023/03/22 12:18:18;;;;;;;3.20;1.08;;;;;;;17.67;64.72;99818.91;20565240;28;20462;-72
2023/03/22 12:28:19;;;;;;;2.75;1.15;;;;;;;17.76;63.10;99793.75;20577035;28;20050;-72
2023/03/22 12:38:20;;;;;;;3.00;1.10;;;;;;;17.98;61.17;99796.09;20581222;28;20609;-72
2023/03/22 12:48:22;;;;;;;3.30;1.23;;;;;;;18.53;60.19;99778.81;20585304;28;20253;-73
2023/03/22 12:58:23;;;;;;;3.92;1.30;;;;;;;18.15;60.29;99758.88;20576070;28;20070;-70
2023/03/22 13:08:25;;;;;;;3.28;1.00;;;;;;;18.34;59.02;99753.38;20573939;28;20082;-71
2023/03/22 13:18:26;;;;;;;4.20;1.45;;;;;;;18.37;59.28;99724.06;20575245;28;20101;-73
2023/03/22 13:28:28;;;;;;;3.25;1.15;;;;;;;18.16;59.56;99723.50;20573283;28;20062;-73
2023/03/22 13:38:29;;;;;;;2.28;0.90;;;;;;;18.36;60.92;99708.25;20575022;28;20466;-73
2023/03/22 13:48:31;;;;;;;3.28;1.20;;;;;;;18.81;55.46;99703.81;20572914;28;20047;-73
2023/03/22 13:58:36;;;;;;;2.28;0.98;;;;;;;18.74;52.27;99699.84;20572924;28;20047;-71
2023/03/22 14:08:37;;;;;;;4.30;1.30;;;;;;;19.11;49.00;99680.69;20569944;28;20043;-72
2023/03/22 14:18:39;;;;;;;3.05;1.10;;;;;;;18.81;49.89;99682.59;20570785;28;20087;-71
2023/03/22 14:28:41;;;;;;;1.77;0.65;;;;;;;18.31;48.05;99678.50;20570040;28;20102;-72
2023/03/22 14:38:41;;;;;;;2.88;0.90;;;;;;;18.38;45.88;99672.75;20569202;28;20137;-72
2023/03/22 14:48:41;;;;;;;2.60;1.00;;;;;;;18.42;45.71;99670.78;20565990;28;20466;-72
2023/03/22 14:58:42;;;;;;;5.72;1.02;;;;;;;18.83;44.07;99659.47;20565573;28;20055;-72
2023/03/22 15:08:42;;;;;;;1.67;0.85;;;;;;;18.80;44.08;99662.34;20547997;28;20097;-72
2023/03/22 15:18:43;;;;;;;2.63;0.88;;;;;;;18.30;47.47;99645.88;20557397;28;20070;-79
2023/03/22 15:28:43;;;;;;;2.72;0.90;;;;;;;18.49;42.58;99644.72;20557644;28;20122;-76
2023/03/22 15:38:43;;;;;;;3.35;1.17;;;;;;;18.11;44.04;99645.22;20576235;28;20042;-76
2023/03/22 15:48:43;;;;;;;3.72;1.00;;;;;;;18.00;45.41;99629.97;20553865;28;20567;-74
2023/03/22 15:58:44;;;;;;;2.75;1.23;;;;;;;18.12;45.41;99626.59;20568988;28;20054;-76
2023/03/22 16:08:45;;;;;;;2.88;1.10;;;;;;;18.13;45.87;99630.94;20557664;28;20125;-74
2023/03/22 16:18:45;;;;;;;2.05;1.05;;;;;;;17.90;47.29;99631.44;20592611;28;20059;-74
2023/03/22 16:28:45;;;;;;;4.30;1.20;;;;;;;17.68;48.86;99645.91;20599650;28;20105;-74
2023/03/22 16:38:45;;;;;;;3.13;1.30;;;;;;;17.73;48.62;99642.13;20577831;28;20144;-76
2023/03/22 16:48:46;;;;;;;3.25;1.10;;;;;;;17.52;50.74;99652.97;20610099;28;20050;-78
2023/03/22 16:58:46;;;;;;;2.22;0.98;;;;;;;17.21;51.91;99664.44;20604405;28;20059;-74
2023/03/22 17:08:46;;;;;;;2.78;1.30;;;;;;;17.10;52.19;99649.16;20587911;28;20062;-74
2023/03/22 17:18:46;;;;;;;3.38;1.05;;;;;;;16.98;53.09;99656.88;20559483;28;20472;-74
2023/03/22 17:28:47;;;;;;;4.28;1.70;;;;;;;16.82;53.89;99664.81;20551451;28;20463;-73
2023/03/22 17:38:47;;;;;;;2.75;1.30;;;;;;;16.72;54.00;99666.19;20553549;28;20035;-74
2023/03/22 17:48:47;;;;;;;4.93;1.33;;;;;;;16.56;54.26;99674.91;20573338;28;20194;-72
2023/03/22 17:58:47;;;;;;;4.22;1.40;;;;;;;16.58;54.76;99670.41;20563931;28;20463;-75
2023/03/22 18:08:48;;;;;;;3.25;1.52;;;;;;;16.41;54.96;99670.41;20570846;28;20042;-74
2023/03/22 18:18:48;;;;;;;2.88;1.10;;;;;;;16.27;55.70;99681.69;20546092;28;20055;-73
2023/03/22 18:28:48;;;;;;;3.70;1.65;;;;;;;16.20;56.54;99680.28;20556107;28;20050;-73
2023/03/22 18:38:49;;;;;;;3.40;1.08;;;;;;;16.11;57.02;99688.66;20550880;28;20504;-73
2023/03/22 18:48:49;;;;;;;3.20;1.20;;;;;;;15.90;57.39;99694.09;20548917;28;20051;-76
2023/03/22 18:58:49;;;;;;;3.85;1.55;;;;;;;15.79;58.58;99684.97;20556373;28;20055;-79
2023/03/22 19:08:50;;;;;;;5.03;1.80;;;;;;;15.72;59.44;99691.47;20569042;28;20055;-81
2023/03/22 19:18:50;;;;;;;4.88;1.50;;;;;;;15.45;61.36;99686.53;20547284;28;20900;-78
2023/03/22 19:28:50;;;;;;;5.55;2.22;;;;;;;15.26;62.71;99685.69;20547827;28;20051;-76
2023/03/22 19:38:51;;;;;;;4.32;1.67;;;;;;;15.14;65.30;99692.41;20543779;28;20530;-76
2023/03/22 19:48:51;;;;;;;4.47;1.90;;;;;;;14.92;67.62;99683.75;20545499;28;20491;-77
2023/03/22 19:58:51;;;;;;;5.20;1.70;;;;;;;14.73;67.95;99691.63;20544034;28;20053;-76
2023/03/22 20:08:51;;;;;;;5.38;1.90;;;;;;;14.65;69.27;99701.63;20555107;28;20414;-74
2023/03/22 20:18:52;;;;;;;5.45;2.55;;;;;;;14.56;69.79;99705.50;20543069;28;20131;-74
2023/03/22 20:28:52;;;;;;;15.52;5.70;;;;;;;14.46;84.17;99717.34;20542928;28;20129;-77
2023/03/22 20:38:52;;;;;;;5.68;1.83;;;;;;;14.28;84.69;99714.56;20554484;28;20073;-78
2023/03/22 20:48:53;;;;;;;6.25;2.45;;;;;;;14.04;100.00;99718.22;20539940;28;20078;-77
2023/03/22 20:58:53;;;;;;;4.25;1.83;;;;;;;13.99;92.28;99707.88;20559066;28;20047;-78
2023/03/22 21:08:53;;;;;;;4.47;1.60;;;;;;;13.97;92.24;99711.47;20566454;28;20051;-78
2023/03/22 21:18:54;;;;;;;3.80;1.58;;;;;;;14.00;89.19;99701.69;20566501;28;20070;-77
2023/03/22 21:28:54;;;;;;;4.00;1.52;;;;;;;14.03;87.80;99696.28;20559622;28;20428;-77
2023/03/22 21:38:54;;;;;;;4.82;2.20;;;;;;;14.07;88.57;99697.88;20557191;28;20046;-77
2023/03/22 21:48:57;;;;;;;3.20;1.55;;;;;;;14.22;83.43;99712.16;20577892;28;20053;-78
2023/03/22 21:58:57;;;;;;;4.57;1.63;;;;;;;14.20;84.78;99708.75;20565433;28;20047;-81
2023/03/22 22:08:59;;;;;;;4.57;1.90;;;;;;;14.26;82.18;99695.34;20560932;28;20057;-75
2023/03/22 22:18:59;;;;;;;3.38;1.77;;;;;;;14.26;78.77;99691.84;20566220;28;20070;-77
2023/03/22 22:29:01;;;;;;;3.83;1.70;;;;;;;14.15;78.61;99688.81;20574037;28;20050;-75
2023/03/22 22:39:03;;;;;;;4.55;1.90;;;;;;;14.11;76.03;99682.81;20595474;28;20419;-75
2023/03/22 22:49:03;;;;;;;4.35;1.83;;;;;;;14.11;75.78;99672.28;20562790;28;20050;-78
2023/03/22 22:59:03;;;;;;;4.38;1.70;;;;;;;14.04;76.28;99674.31;20552488;28;20047;-76
2023/03/22 23:09:04;;;;;;;4.03;1.55;;;;;;;13.95;77.07;99661.53;20556740;28;20046;-76
2023/03/22 23:19:04;;;;;;;6.45;1.45;;;;;;;13.93;76.63;99651.97;20575475;28;20042;-76
2023/03/22 23:29:05;;;;;;;3.35;1.25;;;;;;;13.84;76.53;99642.69;20573674;28;20129;-79
2023/03/22 23:39:05;;;;;;;2.15;1.15;;;;;;;13.80;77.17;99622.72;20550386;28;20106;-76
2023/03/22 23:49:05;;;;;;;3.38;1.30;;;;;;;13.73;77.65;99619.47;20552899;28;20053;-79
2023/03/22 23:59:06;;;;;;;3.92;1.23;;;;;;;13.66;77.68;99593.47;20570009;28;20767;-77
